createdAt,value
2023-03-19T00:00:29.451Z,2.21
2023-03-19T00:03:36.114Z,2.16
2023-03-19T00:06:42.286Z,2.13
2023-03-19T00:09:48.468Z,2.13
2023-03-19T00:12:52.876Z,2.11
2023-03-19T00:15:58.835Z,2.09
2023-03-19T00:19:05.202Z,2.07
2023-03-19T00:22:09.888Z,2.05
2023-03-19T00:25:15.912Z,2.02
2023-03-19T00:28:21.853Z,1.99
2023-03-19T00:31:29.351Z,1.97
2023-03-19T00:34:35.129Z,1.93
2023-03-19T00:37:42.088Z,1.88
2023-03-19T00:40:48.678Z,1.87
2023-03-19T00:43:57.487Z,1.87
2023-03-19T00:47:03.293Z,1.84
2023-03-19T00:50:11.167Z,1.82
2023-03-19T00:53:17.469Z,1.79
2023-03-19T00:56:23.247Z,1.72
2023-03-19T00:59:29.252Z,1.64
2023-03-19T01:02:35.588Z,1.57
2023-03-19T01:05:39.710Z,1.55
2023-03-19T01:08:45.664Z,1.52
2023-03-19T01:11:51.449Z,1.45
2023-03-19T01:14:57.277Z,1.33
2023-03-19T01:18:03.245Z,1.26
2023-03-19T01:21:10.935Z,1.23
2023-03-19T01:24:17.190Z,1.24
2023-03-19T01:27:23.109Z,1.28
2023-03-19T01:30:29.020Z,1.29
2023-03-19T01:33:35.035Z,1.29
2023-03-19T01:36:40.939Z,1.26
2023-03-19T01:39:46.797Z,1.22
2023-03-19T01:42:57.979Z,1.19
2023-03-19T01:46:08.569Z,1.14
2023-03-19T01:49:15.380Z,1.02
2023-03-19T01:52:22.710Z,0.94
2023-03-19T01:55:28.633Z,0.91
2023-03-19T01:58:34.557Z,0.86
2023-03-19T02:01:45.081Z,0.79
2023-03-19T02:04:55.819Z,0.75
2023-03-19T02:08:05.341Z,0.69
2023-03-19T02:11:11.804Z,0.62
2023-03-19T02:14:16.299Z,0.54
2023-03-19T02:17:23.285Z,0.49
2023-03-19T02:20:33.962Z,0.54
2023-03-19T02:23:46.783Z,0.58
2023-03-19T02:26:53.460Z,0.62
2023-03-19T02:30:01.390Z,0.64
2023-03-19T02:33:08.584Z,0.62
2023-03-19T02:36:19.393Z,0.57
2023-03-19T02:39:31.004Z,0.53
2023-03-19T02:42:36.865Z,0.46
2023-03-19T02:45:42.746Z,0.37
2023-03-19T02:48:48.593Z,0.33
2023-03-19T02:51:54.534Z,0.31
2023-03-19T02:55:00.286Z,0.28
2023-03-19T02:58:06.156Z,0.23
2023-03-19T03:01:12.067Z,0.20
2023-03-19T03:04:17.973Z,0.17
2023-03-19T03:07:23.925Z,0.16
2023-03-19T03:10:30.574Z,0.13
2023-03-19T03:13:37.442Z,0.12
2023-03-19T03:16:43.787Z,0.11
2023-03-19T03:19:47.977Z,0.06
2023-03-19T03:22:53.784Z,0.03
2023-03-19T03:25:59.537Z,0.02
2023-03-19T03:29:05.772Z,0.01
2023-03-19T03:32:12.164Z,-0.01
2023-03-19T03:35:21.961Z,0.01
2023-03-19T03:38:28.058Z,-0.07
2023-03-19T03:41:33.897Z,-0.14
2023-03-19T03:44:39.947Z,-0.18
2023-03-19T03:47:46.339Z,-0.25
2023-03-19T03:50:50.533Z,-0.34
2023-03-19T03:53:56.387Z,-0.40
2023-03-19T03:57:03.598Z,-0.44
2023-03-19T04:00:13.215Z,-0.46
2023-03-19T04:03:19.629Z,-0.49
2023-03-19T04:06:28.593Z,-0.53
2023-03-19T04:09:34.371Z,-0.55
2023-03-19T04:12:41.542Z,-0.56
2023-03-19T04:15:48.000Z,-0.55
2023-03-19T04:18:52.154Z,-0.56
2023-03-19T04:21:57.914Z,-0.58
2023-03-19T04:25:05.120Z,-0.60
2023-03-19T04:28:14.268Z,-0.58
2023-03-19T04:31:20.224Z,-0.57
2023-03-19T04:34:26.174Z,-0.55
2023-03-19T04:37:32.107Z,-0.57
2023-03-19T04:40:37.972Z,-0.62
2023-03-19T04:43:43.928Z,-0.61
2023-03-19T04:46:49.773Z,-0.60
2023-03-19T04:49:55.738Z,-0.68
2023-03-19T04:53:01.700Z,-0.77
2023-03-19T04:56:09.084Z,-0.82
2023-03-19T04:59:14.843Z,-0.83
2023-03-19T05:02:20.898Z,-0.81
2023-03-19T05:05:27.072Z,-0.87
2023-03-19T05:08:33.084Z,-0.99
2023-03-19T05:11:39.396Z,-1.04
2023-03-19T05:14:43.820Z,-1.07
2023-03-19T05:17:50.190Z,-1.10
2023-03-19T05:20:54.788Z,-1.09
2023-03-19T05:24:00.674Z,-1.15
2023-03-19T05:27:07.606Z,-1.21
2023-03-19T05:30:16.074Z,-1.20
2023-03-19T05:33:22.676Z,-1.15
2023-03-19T05:36:29.221Z,-1.11
2023-03-19T05:39:35.390Z,-1.04
2023-03-19T05:42:41.244Z,-0.96
2023-03-19T05:45:51.469Z,-0.90
2023-03-19T05:48:57.464Z,-0.83
2023-03-19T05:52:03.312Z,-0.79
2023-03-19T05:55:11.143Z,-0.79
2023-03-19T05:58:16.997Z,-0.74
2023-03-19T06:01:23.264Z,-0.69
2023-03-19T06:04:29.200Z,-0.66
2023-03-19T06:07:35.060Z,-0.63
2023-03-19T06:10:40.913Z,-0.59
2023-03-19T06:13:47.328Z,-0.59
2023-03-19T06:16:53.342Z,-0.59
2023-03-19T06:19:59.096Z,-0.54
2023-03-19T06:23:05.059Z,-0.45
2023-03-19T06:26:11.036Z,-0.39
2023-03-19T06:29:16.983Z,-0.33
2023-03-19T06:32:22.950Z,-0.25
2023-03-19T06:35:29.282Z,-0.16
2023-03-19T06:38:33.466Z,-0.04
2023-03-19T06:41:39.189Z,0.10
2023-03-19T06:44:45.161Z,0.23
2023-03-19T06:47:53.510Z,0.37
2023-03-19T06:50:59.718Z,0.53
2023-03-19T06:54:06.091Z,0.69
2023-03-19T06:57:10.422Z,0.88
2023-03-19T07:00:18.709Z,1.10
2023-03-19T07:03:24.483Z,1.30
2023-03-19T07:06:30.435Z,1.50
2023-03-19T07:09:36.609Z,1.67
2023-03-19T07:12:42.388Z,1.82
2023-03-19T07:15:48.319Z,2.00
2023-03-19T07:18:54.330Z,2.16
2023-03-19T07:22:00.071Z,2.32
2023-03-19T07:25:06.736Z,2.49
2023-03-19T07:28:12.564Z,2.68
2023-03-19T07:31:18.780Z,2.87
2023-03-19T07:34:23.243Z,3.07
2023-03-19T07:37:29.108Z,3.33
2023-03-19T07:40:35.244Z,3.59
2023-03-19T07:43:39.797Z,3.86
2023-03-19T07:46:45.855Z,4.12
2023-03-19T07:49:51.657Z,4.39
2023-03-19T07:52:57.565Z,4.66
2023-03-19T07:56:03.529Z,4.94
2023-03-19T07:59:09.407Z,5.21
2023-03-19T08:02:16.510Z,5.49
2023-03-19T08:05:22.624Z,5.72
2023-03-19T08:08:28.486Z,5.94
2023-03-19T08:11:34.261Z,6.14
2023-03-19T08:14:40.016Z,6.37
2023-03-19T08:17:46.055Z,6.60
2023-03-19T08:20:51.896Z,6.84
2023-03-19T08:23:57.767Z,7.12
2023-03-19T08:27:03.975Z,7.40
2023-03-19T08:30:12.357Z,7.65
2023-03-19T08:33:18.543Z,7.85
2023-03-19T08:36:22.830Z,8.05
2023-03-19T08:39:29.377Z,8.25
2023-03-19T08:42:35.704Z,8.43
2023-03-19T08:45:39.892Z,8.60
2023-03-19T08:48:46.458Z,8.75
2023-03-19T08:51:52.320Z,8.90
2023-03-19T08:54:58.381Z,9.06
2023-03-19T08:58:04.649Z,9.20
2023-03-19T09:01:10.867Z,9.37
2023-03-19T09:04:16.835Z,9.54
2023-03-19T09:07:22.760Z,9.70
2023-03-19T09:10:28.894Z,9.85
2023-03-19T09:13:35.111Z,10.01
2023-03-19T09:16:39.480Z,10.17
2023-03-19T09:19:45.339Z,10.30
2023-03-19T09:22:51.297Z,10.43
2023-03-19T09:25:57.359Z,10.61
2023-03-19T09:29:03.689Z,10.79
2023-03-19T09:32:08.536Z,10.92
2023-03-19T09:35:14.734Z,11.05
2023-03-19T09:38:19.149Z,11.19
2023-03-19T09:41:34.839Z,11.32
2023-03-19T09:44:44.381Z,11.47
2023-03-19T09:47:54.775Z,11.62
2023-03-19T09:51:04.588Z,11.73
2023-03-19T09:54:23.873Z,11.85
2023-03-19T09:57:30.029Z,11.96
2023-03-19T10:00:37.111Z,12.09
2023-03-19T10:03:54.460Z,12.24
2023-03-19T10:07:08.647Z,12.40
2023-03-19T10:10:48.610Z,12.58
2023-03-19T10:14:05.197Z,12.75
2023-03-19T10:17:20.759Z,12.89
2023-03-19T10:20:34.751Z,13.07
2023-03-19T10:23:46.918Z,13.27
2023-03-19T10:26:58.035Z,13.41
2023-03-19T10:30:07.147Z,13.50
2023-03-19T10:33:23.512Z,13.59
2023-03-19T10:36:34.694Z,13.67
2023-03-19T10:39:41.803Z,13.75
2023-03-19T10:43:04.085Z,13.85
2023-03-19T10:46:15.757Z,13.95
2023-03-19T10:49:21.538Z,13.97
2023-03-19T10:52:32.140Z,14.01
2023-03-19T10:55:38.097Z,14.07
2023-03-19T10:58:56.760Z,14.19
2023-03-19T11:02:16.501Z,14.24
2023-03-19T11:05:31.907Z,14.33
2023-03-19T11:08:40.191Z,14.50
2023-03-19T11:11:50.838Z,14.70
2023-03-19T11:14:59.469Z,14.90
2023-03-19T11:18:17.029Z,15.09
2023-03-19T11:21:30.319Z,15.22
2023-03-19T11:24:40.519Z,15.22
2023-03-19T11:27:48.136Z,15.27
2023-03-19T11:31:03.752Z,15.42
2023-03-19T11:34:30.981Z,15.59
2023-03-19T11:37:52.196Z,15.74
2023-03-19T11:41:07.174Z,15.83
2023-03-19T11:44:21.017Z,15.87
2023-03-19T11:47:36.393Z,15.93
2023-03-19T11:50:50.576Z,16.06
2023-03-19T11:54:06.665Z,16.11
2023-03-19T11:57:20.036Z,16.03
2023-03-19T12:00:34.023Z,16.02
2023-03-19T12:04:15.546Z,16.08
2023-03-19T12:07:31.729Z,15.99
2023-03-19T12:10:53.734Z,15.91
2023-03-19T12:14:25.313Z,15.84
2023-03-19T12:17:45.985Z,15.91
2023-03-19T12:21:04.988Z,15.99
2023-03-19T12:24:23.648Z,16.04
2023-03-19T12:27:40.816Z,16.04
2023-03-19T12:30:50.783Z,15.99
2023-03-19T12:34:07.831Z,15.88
2023-03-19T12:37:22.639Z,15.79
2023-03-19T12:40:36.964Z,15.78
2023-03-19T12:43:51.454Z,15.86
2023-03-19T12:47:04.414Z,15.95
2023-03-19T12:50:15.415Z,15.99
2023-03-19T12:53:32.981Z,15.93
2023-03-19T12:56:45.167Z,15.88
2023-03-19T12:59:56.638Z,15.84
2023-03-19T13:03:09.292Z,15.76
2023-03-19T13:06:21.922Z,15.77
2023-03-19T13:09:33.305Z,15.81
2023-03-19T13:12:39.787Z,15.87
2023-03-19T13:15:50.300Z,15.90
2023-03-19T13:19:09.977Z,15.92
2023-03-19T13:22:20.604Z,15.90
2023-03-19T13:25:33.880Z,15.82
2023-03-19T13:28:55.230Z,15.82
2023-03-19T13:32:07.638Z,15.84
2023-03-19T13:35:21.862Z,15.80
2023-03-19T13:38:34.436Z,15.73
2023-03-19T13:42:09.042Z,15.67
2023-03-19T13:45:35.990Z,15.65
2023-03-19T13:48:52.889Z,15.60
2023-03-19T13:52:04.265Z,15.56
2023-03-19T13:55:34.494Z,15.58
2023-03-19T13:58:53.135Z,15.59
2023-03-19T14:02:00.242Z,15.61
2023-03-19T14:05:10.533Z,15.61
2023-03-19T14:08:24.602Z,15.56
2023-03-19T14:11:34.058Z,15.52
2023-03-19T14:14:45.362Z,15.46
2023-03-19T14:18:01.567Z,15.42
2023-03-19T14:21:12.955Z,15.41
2023-03-19T14:28:06.740Z,15.39
2023-03-19T14:31:23.113Z,15.36
2023-03-19T14:34:33.828Z,15.32
2023-03-19T14:37:49.210Z,15.29
2023-03-19T14:40:57.339Z,15.28
2023-03-19T14:44:24.508Z,15.25
2023-03-19T14:47:48.982Z,15.20
2023-03-19T14:51:10.655Z,15.15
2023-03-19T14:54:29.284Z,15.09
2023-03-19T14:57:36.304Z,15.02
2023-03-19T15:00:44.705Z,14.95
2023-03-19T15:03:56.910Z,14.91
2023-03-19T15:07:03.243Z,14.84
2023-03-19T15:10:16.074Z,14.78
2023-03-19T15:13:37.062Z,14.67
2023-03-19T15:16:54.950Z,14.54
2023-03-19T15:20:03.645Z,14.48
2023-03-19T15:23:25.675Z,14.41
2023-03-19T15:26:37.963Z,14.35
2023-03-19T15:29:44.270Z,14.28
2023-03-19T15:33:04.233Z,14.24
2023-03-19T15:36:18.553Z,14.19
2023-03-19T15:39:27.733Z,14.16
2023-03-19T15:42:34.097Z,14.13
2023-03-19T15:45:40.994Z,14.10
2023-03-19T15:48:50.977Z,14.05
2023-03-19T15:52:03.053Z,14.00
2023-03-19T15:55:10.590Z,13.94
2023-03-19T15:58:21.534Z,13.87
2023-03-19T16:01:28.231Z,13.79
2023-03-19T16:04:55.979Z,13.69
2023-03-19T16:08:04.955Z,13.59
2023-03-19T16:11:27.314Z,13.51
2023-03-19T16:14:41.949Z,13.41
2023-03-19T16:17:49.374Z,13.31
2023-03-19T16:21:14.485Z,13.22
2023-03-19T16:24:27.542Z,13.13
2023-03-19T16:27:38.450Z,13.03
2023-03-19T16:30:49.609Z,12.91
2023-03-19T16:33:57.232Z,12.79
2023-03-19T16:37:03.859Z,12.68
2023-03-19T16:40:41.198Z,12.57
2023-03-19T16:43:48.747Z,12.45
2023-03-19T16:46:55.581Z,12.29
2023-03-19T16:50:01.662Z,12.12
2023-03-19T16:53:16.230Z,12.00
2023-03-19T16:56:22.293Z,11.93
2023-03-19T16:59:30.962Z,11.86
2023-03-19T17:02:36.695Z,11.71
2023-03-19T17:05:42.720Z,11.53
2023-03-19T17:08:49.265Z,11.40
2023-03-19T17:11:55.359Z,11.31
2023-03-19T17:15:01.643Z,11.18
2023-03-19T17:18:11.599Z,11.03
2023-03-19T17:21:22.574Z,10.86
2023-03-19T17:24:30.901Z,10.66
2023-03-19T17:27:37.339Z,10.52
2023-03-19T17:30:41.666Z,10.37
2023-03-19T17:33:47.846Z,10.23
2023-03-19T17:36:53.432Z,10.08
2023-03-19T17:39:59.299Z,9.84
2023-03-19T17:43:06.943Z,9.65
2023-03-19T17:46:17.569Z,9.52
2023-03-19T17:49:26.234Z,9.39
2023-03-19T17:52:32.013Z,9.30
2023-03-19T17:55:37.839Z,9.22
2023-03-19T17:58:44.004Z,9.14
2023-03-19T18:01:50.068Z,9.09
2023-03-19T18:04:56.337Z,9.03
2023-03-19T18:08:00.448Z,8.95
2023-03-19T18:11:06.781Z,8.80
2023-03-19T18:14:12.785Z,8.63
2023-03-19T18:17:20.364Z,8.49
2023-03-19T18:20:29.815Z,8.35
2023-03-19T18:23:35.580Z,8.20
2023-03-19T18:26:41.725Z,8.09
2023-03-19T18:29:48.003Z,8.03
2023-03-19T18:32:57.146Z,8.00
2023-03-19T18:36:04.402Z,7.88
2023-03-19T18:39:14.342Z,7.73
2023-03-19T18:42:20.360Z,7.59
2023-03-19T18:45:30.607Z,7.49
2023-03-19T18:48:36.661Z,7.46
2023-03-19T18:51:58.791Z,7.37
2023-03-19T18:55:07.974Z,7.22
2023-03-19T18:58:20.533Z,7.05
2023-03-19T19:01:27.885Z,6.96
2023-03-19T19:04:33.836Z,6.87
2023-03-19T19:07:39.758Z,6.81
2023-03-19T19:10:48.537Z,6.77
2023-03-19T19:13:57.223Z,6.71
2023-03-19T19:17:03.201Z,6.64
2023-03-19T19:20:12.018Z,6.56
2023-03-19T19:23:18.585Z,6.40
2023-03-19T19:26:27.027Z,6.24
2023-03-19T19:29:32.938Z,6.19
2023-03-19T19:32:39.504Z,6.17
2023-03-19T19:35:45.942Z,6.10
2023-03-19T19:38:52.257Z,6.01
2023-03-19T19:41:56.995Z,5.95
2023-03-19T19:45:03.868Z,5.85
2023-03-19T19:48:16.810Z,5.80
2023-03-19T19:51:24.921Z,5.75
2023-03-19T19:54:30.857Z,5.69
2023-03-19T19:57:36.924Z,5.69
2023-03-19T20:00:47.748Z,5.67
2023-03-19T20:03:59.629Z,5.62
2023-03-19T20:07:05.548Z,5.57
2023-03-19T20:10:14.433Z,5.49
2023-03-19T20:13:26.195Z,5.43
2023-03-19T20:16:31.995Z,5.35
2023-03-19T20:19:37.884Z,5.29
2023-03-19T20:22:43.945Z,5.18
2023-03-19T20:25:51.070Z,5.05
2023-03-19T20:28:57.091Z,4.95
2023-03-19T20:32:03.152Z,4.89
2023-03-19T20:35:16.072Z,4.89
2023-03-19T20:38:21.826Z,4.86
2023-03-19T20:41:28.605Z,4.83
2023-03-19T20:44:34.672Z,4.79
2023-03-19T20:47:40.859Z,4.76
2023-03-19T20:50:47.935Z,4.76
2023-03-19T20:53:54.102Z,4.83
2023-03-19T20:56:59.989Z,4.85
2023-03-19T21:00:18.499Z,4.78
2023-03-19T21:03:26.397Z,4.72
2023-03-19T21:06:42.720Z,4.73
2023-03-19T21:09:58.124Z,4.76
2023-03-19T21:13:05.491Z,4.71
2023-03-19T21:16:17.543Z,4.62
2023-03-19T21:19:25.940Z,4.59
2023-03-19T21:22:33.143Z,4.54
2023-03-19T21:25:39.327Z,4.46
2023-03-19T21:28:46.637Z,4.39
2023-03-19T21:31:57.945Z,4.33
2023-03-19T21:35:03.776Z,4.30
2023-03-19T21:38:09.634Z,4.33
2023-03-19T21:41:25.115Z,4.35
2023-03-19T21:44:31.487Z,4.36
2023-03-19T21:47:37.228Z,4.35
2023-03-19T21:50:43.541Z,4.32
2023-03-19T21:53:48.056Z,4.27
2023-03-19T21:56:53.849Z,4.22
2023-03-19T21:59:59.745Z,4.21
2023-03-19T22:03:05.809Z,4.20
2023-03-19T22:06:12.754Z,4.18
2023-03-19T22:09:18.645Z,4.13
2023-03-19T22:12:29.109Z,4.09
2023-03-19T22:15:38.020Z,4.04
2023-03-19T22:18:43.926Z,4.02
2023-03-19T22:21:50.731Z,4.02
2023-03-19T22:24:59.369Z,4.02
2023-03-19T22:28:10.524Z,3.95
2023-03-19T22:31:16.617Z,3.83
2023-03-19T22:34:25.267Z,3.75
2023-03-19T22:37:31.991Z,3.75
2023-03-19T22:40:38.721Z,3.71
2023-03-19T22:43:46.269Z,3.63
2023-03-19T22:46:52.166Z,3.53
2023-03-19T22:49:58.471Z,3.43
2023-03-19T22:53:02.768Z,3.41
2023-03-19T22:56:10.893Z,3.37
2023-03-19T22:59:16.734Z,3.33
2023-03-19T23:02:22.613Z,3.29
2023-03-19T23:05:31.815Z,3.26
2023-03-19T23:08:37.650Z,3.25
2023-03-19T23:11:43.854Z,3.26
2023-03-19T23:14:49.922Z,3.31
2023-03-19T23:17:58.269Z,3.34
2023-03-19T23:21:05.087Z,3.34
2023-03-19T23:24:14.746Z,3.31
2023-03-19T23:27:26.100Z,3.31
2023-03-19T23:30:34.176Z,3.34
2023-03-19T23:33:40.200Z,3.39
2023-03-19T23:36:46.381Z,3.39
2023-03-19T23:39:53.764Z,3.38
2023-03-19T23:43:02.274Z,3.35
2023-03-19T23:46:11.637Z,3.33
2023-03-19T23:49:19.429Z,3.30
2023-03-19T23:52:25.275Z,3.24
2023-03-19T23:55:32.410Z,3.18
2023-03-19T23:58:43.240Z,3.16
